Time;durP1;ratioP1;P1;durP2;ratioP2;P2;SDS_P1;SDS_P2;PMS_P1;PMS_P2;Temp;Humidity;BMP_temperature;BMP_pressure;BME280_temperature;BME280_humidity;BME280_pressure;Samples;Min_cycle;Max_cycle;Signal;HPM_P1;HPM_P2
2023/09/24 00:02:01;;;;;;;0.00;0.00;;;;;;;12.57;100.00;102179.22;5090643;28;20107;-43
2023/09/24 00:04:27;;;;;;;0.00;0.00;;;;;;;12.49;100.00;102170.06;5088635;28;20131;-44
2023/09/24 00:06:52;;;;;;;0.00;0.00;;;;;;;12.47;100.00;102179.34;5109187;28;20020;-41
2023/09/24 00:09:18;;;;;;;0.00;0.00;;;;;;;12.42;100.00;102171.72;5100616;28;20110;-43
2023/09/24 00:11:43;;;;;;;0.00;0.00;;;;;;;12.42;100.00;102179.81;5095573;28;20134;-42
2023/09/24 00:14:10;;;;;;;0.00;0.00;;;;;;;12.41;100.00;102188.09;5090982;28;20032;-41
2023/09/24 00:16:36;;;;;;;0.00;0.00;;;;;;;12.38;100.00;102189.25;5099979;28;20028;-42
2023/09/24 00:19:03;;;;;;;0.00;0.00;;;;;;;12.34;100.00;102195.97;5111337;28;20126;-42
2023/09/24 00:21:28;;;;;;;0.00;0.00;;;;;;;12.32;100.00;102187.19;5110891;28;20487;-44
2023/09/24 00:23:54;;;;;;;0.00;0.00;;;;;;;12.31;100.00;102196.28;5090774;28;20020;-41
2023/09/24 00:26:19;;;;;;;0.00;0.00;;;;;;;12.32;100.00;102194.44;5105376;28;20058;-43
2023/09/24 00:28:45;;;;;;;0.00;0.00;;;;;;;12.27;100.00;102192.25;5109382;28;20107;-42
2023/09/24 00:31:10;;;;;;;0.00;0.00;;;;;;;12.25;100.00;102192.38;5109565;28;20484;-42
2023/09/24 00:33:35;;;;;;;0.00;0.00;;;;;;;12.24;100.00;102187.13;5110516;28;20028;-43
2023/09/24 00:36:01;;;;;;;0.00;0.00;;;;;;;12.23;100.00;102196.25;5095128;28;20035;-45
2023/09/24 00:38:26;;;;;;;0.00;0.00;;;;;;;12.20;100.00;102199.28;5099907;28;20056;-43
2023/09/24 00:40:52;;;;;;;0.00;0.00;;;;;;;12.20;100.00;102188.47;5091689;28;20493;-42
2023/09/24 00:43:28;;;;;;;0.00;0.00;;;;;;;12.21;100.00;102196.41;5093784;28;20059;-46
2023/09/24 00:45:55;;;;;;;0.00;0.00;;;;;;;12.18;100.00;102195.88;5104728;28;20034;-44
2023/09/24 00:48:22;;;;;;;0.00;0.00;;;;;;;12.17;100.00;102196.91;5113521;28;20428;-42
2023/09/24 00:50:47;;;;;;;0.00;0.00;;;;;;;12.15;100.00;102198.91;5113415;28;20024;-42
2023/09/24 00:53:14;;;;;;;0.00;0.00;;;;;;;12.15;100.00;102196.22;5113930;28;20866;-41
2023/09/24 00:55:39;;;;;;;0.00;0.00;;;;;;;12.15;100.00;102198.91;5113464;28;20072;-45
2023/09/24 00:58:05;;;;;;;0.00;0.00;;;;;;;12.17;100.00;102196.91;5101860;28;20036;-44
2023/09/24 01:00:34;;;;;;;0.00;0.00;;;;;;;12.18;100.00;102195.88;5111988;28;20052;-43
2023/09/24 01:03:00;;;;;;;0.00;0.00;;;;;;;12.18;100.00;102195.88;5114481;28;20042;-43
2023/09/24 01:05:27;;;;;;;0.00;0.00;;;;;;;12.17;100.00;102196.91;5113695;28;20061;-44
2023/09/24 01:07:54;;;;;;;;;;;;;;;12.20;100.00;102199.28;5113793;28;20048;-44
2023/09/24 01:10:23;;;;;;;0.00;0.00;;;;;;;12.18;100.00;102198.59;5092867;28;19916;-41
2023/09/24 01:13:01;;;;;;;0.00;0.00;;;;;;;12.20;100.00;102196.56;5092990;28;20028;-45
2023/09/24 01:15:31;;;;;;;0.00;0.00;;;;;;;12.19;100.00;102198.44;5093771;28;20419;-44
2023/09/24 01:17:57;;;;;;;0.00;0.00;;;;;;;12.19;100.00;102195.75;5093531;28;20043;-46
2023/09/24 01:20:24;;;;;;;0.00;0.00;;;;;;;12.21;100.00;102190.16;5093538;28;20020;-42
2023/09/24 01:22:50;;;;;;;0.00;0.00;;;;;;;12.20;100.00;102192.03;5092902;28;20032;-45
2023/09/24 01:25:16;;;;;;;0.00;0.00;;;;;;;12.22;100.00;102189.19;5094631;28;20035;-41
2023/09/24 01:27:42;;;;;;;0.00;0.00;;;;;;;12.23;100.00;102188.16;5094533;28;20030;-44
2023/09/24 01:30:08;;;;;;;0.00;0.00;;;;;;;12.24;100.00;102192.53;5092352;28;20107;-43
2023/09/24 01:32:34;;;;;;;0.00;0.00;;;;;;;12.34;100.00;102192.44;5091843;28;20466;-45
2023/09/24 01:35:06;;;;;;;0.00;0.00;;;;;;;12.38;100.00;102189.25;5093500;28;20031;-45
2023/09/24 01:37:33;;;;;;;0.00;0.00;;;;;;;12.35;100.00;102197.69;5092945;28;20024;-43
2023/09/24 01:40:09;;;;;;;0.00;0.00;;;;;;;12.38;100.00;102200.06;5100918;28;20056;-43
2023/09/24 01:42:35;;;;;;;0.00;0.00;;;;;;;12.34;100.00;102198.66;5093191;28;20043;-45
2023/09/24 01:45:00;;;;;;;0.00;0.00;;;;;;;12.32;100.00;102197.97;5111707;28;20032;-43
2023/09/24 01:47:26;;;;;;;0.00;0.00;;;;;;;12.27;100.00;102195.78;5113631;28;20034;-42
2023/09/24 01:49:51;;;;;;;0.00;0.00;;;;;;;12.23;100.00;102197.09;5111464;28;20386;-45
2023/09/24 01:52:17;;;;;;;0.00;0.00;;;;;;;12.22;100.00;102199.97;5110153;28;20032;-43
2023/09/24 01:54:42;;;;;;;0.00;0.00;;;;;;;12.17;100.00;102202.31;5099598;28;20024;-44
2023/09/24 01:57:07;;;;;;;0.00;0.00;;;;;;;12.12;100.00;102210.88;5108586;28;20077;-45
2023/09/24 01:59:34;;;;;;;0.00;0.00;;;;;;;12.13;100.00;102215.25;5100834;28;20051;-42
2023/09/24 02:01:59;;;;;;;0.00;0.00;;;;;;;12.13;100.00;102209.84;5073598;28;20043;-41
2023/09/24 02:04:24;;;;;;;0.00;0.00;;;;;;;12.14;100.00;102202.59;5091251;28;20028;-43
2023/09/24 02:06:50;;;;;;;0.00;0.00;;;;;;;12.17;100.00;102199.59;5105875;28;20026;-44
2023/09/24 02:09:16;;;;;;;0.00;0.00;;;;;;;12.18;100.00;102204.81;5092544;28;20028;-41
2023/09/24 02:11:41;;;;;;;0.00;0.00;;;;;;;12.15;100.00;102204.31;5091045;28;20123;-42
2023/09/24 02:14:07;;;;;;;0.00;0.00;;;;;;;12.16;100.00;102205.97;5092053;28;20103;-44
2023/09/24 02:16:33;;;;;;;0.00;0.00;;;;;;;12.16;100.00;102205.97;5092540;28;20039;-47
2023/09/24 02:18:58;;;;;;;0.00;0.00;;;;;;;12.18;100.00;102204.81;5090257;28;20473;-44
2023/09/24 02:21:25;;;;;;;0.00;0.00;;;;;;;12.20;100.00;102196.56;5111302;28;20023;-44
2023/09/24 02:23:53;;;;;;;0.00;0.00;;;;;;;12.18;100.00;102198.59;5111158;28;20115;-43
2023/09/24 02:26:19;;;;;;;0.00;0.00;;;;;;;12.18;100.00;102194.03;5112678;28;20032;-45
2023/09/24 02:28:44;;;;;;;0.00;0.00;;;;;;;12.17;100.00;102195.03;5111982;28;20076;-43
2023/09/24 02:31:12;;;;;;;0.00;0.00;;;;;;;12.14;100.00;102194.50;5108467;28;20061;-45
2023/09/24 02:33:38;;;;;;;0.00;0.00;;;;;;;12.15;100.00;102193.50;5101976;28;20035;-42
2023/09/24 02:36:08;;;;;;;0.00;0.00;;;;;;;12.17;100.00;102202.31;5106339;28;20028;-42
2023/09/24 02:38:34;;;;;;;0.00;0.00;;;;;;;12.17;100.00;102191.50;5112137;28;20106;-42
2023/09/24 02:40:59;;;;;;;0.00;0.00;;;;;;;12.18;100.00;102190.47;5103786;27;20032;-42
2023/09/24 02:43:24;;;;;;;0.00;0.00;;;;;;;12.17;100.00;102186.09;5091865;28;20110;-45
2023/09/24 02:45:50;;;;;;;0.00;0.00;;;;;;;12.18;100.00;102179.69;5107751;28;20023;-43
2023/09/24 02:48:18;;;;;;;0.00;0.00;;;;;;;12.18;100.00;102182.38;5102124;28;20077;-43
2023/09/24 02:50:43;;;;;;;;;;;;;;;12.14;100.00;102186.41;5102960;28;20039;-43
2023/09/24 02:53:09;;;;;;;0.00;0.00;;;;;;;12.11;100.00;102186.72;5111094;28;19907;-46
2023/09/24 02:55:36;;;;;;;0.00;0.00;;;;;;;12.09;100.00;102184.19;5111891;28;20015;-43
2023/09/24 02:58:03;;;;;;;0.00;0.00;;;;;;;12.05;100.00;102185.50;5102590;27;20039;-44
2023/09/24 03:00:36;;;;;;;0.00;0.00;;;;;;;12.04;100.00;102192.75;5091476;28;20052;-42
2023/09/24 03:03:05;;;;;;;0.00;0.00;;;;;;;12.01;100.00;102198.47;5101176;28;20027;-42
2023/09/24 03:05:31;;;;;;;0.00;0.00;;;;;;;11.97;100.00;102197.09;5111837;28;20476;-42
2023/09/24 03:08:02;;;;;;;0.00;0.00;;;;;;;11.94;100.00;102205.50;5112117;27;20479;-43
2023/09/24 03:10:29;;;;;;;0.00;0.00;;;;;;;11.93;100.00;102209.22;5104162;28;20379;-43
2023/09/24 03:12:54;;;;;;;0.00;0.00;;;;;;;11.89;100.00;102210.53;5091066;28;20028;-46
2023/09/24 03:15:20;;;;;;;0.00;0.00;;;;;;;11.89;100.00;102218.63;5091456;28;20031;-42
2023/09/24 03:17:48;;;;;;;0.00;0.00;;;;;;;11.90;100.00;102222.16;5096381;28;20058;-43
2023/09/24 03:20:19;;;;;;;;;;;;;;;11.90;100.00;102227.56;5093141;28;20085;-42
2023/09/24 03:22:46;;;;;;;0.00;0.00;;;;;;;11.90;100.00;102232.94;5091646;28;19908;-44
2023/09/24 03:25:12;;;;;;;0.00;0.00;;;;;;;11.89;100.00;102239.34;5091001;28;20023;-45
2023/09/24 03:27:39;;;;;;;0.00;0.00;;;;;;;11.87;100.00;102244.91;5095632;28;20132;-42
2023/09/24 03:30:14;;;;;;;0.00;0.00;;;;;;;11.89;100.00;102237.50;5108411;28;20103;-41
2023/09/24 03:32:40;;;;;;;0.00;0.00;;;;;;;11.90;100.00;102244.59;5110824;28;20036;-42
2023/09/24 03:35:09;;;;;;;0.00;0.00;;;;;;;11.87;100.00;102244.91;5110559;28;20485;-45
2023/09/24 03:37:35;;;;;;;0.00;0.00;;;;;;;11.87;100.00;102242.19;5111374;28;20503;-44
2023/09/24 03:40:01;;;;;;;0.00;0.00;;;;;;;11.86;100.00;102248.59;5106147;28;20047;-42
2023/09/24 03:42:27;;;;;;;0.00;0.00;;;;;;;11.85;100.00;102247.72;5108907;28;20059;-44
2023/09/24 03:44:52;;;;;;;0.00;0.00;;;;;;;11.83;100.00;102257.84;5091229;28;20051;-42
2023/09/24 03:47:18;;;;;;;0.00;0.00;;;;;;;11.78;100.00;102259.31;5091250;28;20101;-43
2023/09/24 03:49:43;;;;;;;0.00;0.00;;;;;;;11.79;100.00;102259.13;5092854;28;20038;-42
2023/09/24 03:52:10;;;;;;;0.00;0.00;;;;;;;11.76;100.00;102264.00;5092571;28;20032;-42
2023/09/24 03:54:38;;;;;;;0.00;0.00;;;;;;;11.75;100.00;102268.56;5090669;28;20051;-44
2023/09/24 03:57:05;;;;;;;0.00;0.00;;;;;;;11.77;100.00;102271.06;5098870;28;20032;-42
2023/09/24 03:59:35;;;;;;;0.00;0.00;;;;;;;11.72;100.00;102268.88;5106992;28;20039;-43
2023/09/24 04:02:00;;;;;;;0.00;0.00;;;;;;;11.72;100.00;102273.41;5111838;28;20486;-43
2023/09/24 04:04:26;;;;;;;0.00;0.00;;;;;;;11.72;100.00;102273.41;5110867;28;20030;-42
2023/09/24 04:06:51;;;;;;;0.00;0.00;;;;;;;11.73;100.00;102280.50;5101775;28;20020;-46
2023/09/24 04:09:17;;;;;;;0.00;0.00;;;;;;;11.72;100.00;102273.41;5109749;28;20030;-45
2023/09/24 04:11:42;;;;;;;0.00;0.00;;;;;;;11.75;100.00;102279.34;5099253;28;20028;-45
2023/09/24 04:14:08;;;;;;;0.00;0.00;;;;;;;11.77;100.00;102280.03;5094092;28;20053;-43
2023/09/24 04:16:34;;;;;;;0.00;0.00;;;;;;;11.79;100.00;102279.88;5111032;28;20031;-43
2023/09/24 04:18:59;;;;;;;0.00;0.00;;;;;;;11.80;100.00;102274.34;5113192;28;20110;-45
2023/09/24 04:21:25;;;;;;;0.00;0.00;;;;;;;11.80;100.00;102270.78;5107198;28;20094;-43
2023/09/24 04:23:51;;;;;;;0.00;0.00;;;;;;;11.83;100.00;102275.88;5094967;28;20028;-44
2023/09/24 04:26:21;;;;;;;0.00;0.00;;;;;;;11.83;100.00;102275.88;5109174;28;20031;-42
2023/09/24 04:28:48;;;;;;;0.00;0.00;;;;;;;11.78;100.00;102279.03;5113840;28;20032;-43
2023/09/24 04:31:13;;;;;;;0.00;0.00;;;;;;;11.72;100.00;102273.41;5114203;28;20027;-44
2023/09/24 04:33:38;;;;;;;0.00;0.00;;;;;;;11.72;100.00;102278.81;5114946;28;20277;-44
2023/09/24 04:36:05;;;;;;;0.00;0.00;;;;;;;11.69;100.00;102281.78;5104824;28;20036;-42
2023/09/24 04:38:30;;;;;;;0.00;0.00;;;;;;;11.63;100.00;102281.41;5096175;28;20417;-43
2023/09/24 04:40:57;;;;;;;0.00;0.00;;;;;;;11.64;100.00;102280.41;5113448;28;20073;-45
2023/09/24 04:43:22;;;;;;;0.00;0.00;;;;;;;11.62;100.00;102277.03;5107183;28;20028;-44
2023/09/24 04:45:48;;;;;;;0.00;0.00;;;;;;;11.61;100.00;102278.03;5105228;28;20065;-42
2023/09/24 04:48:13;;;;;;;0.00;0.00;;;;;;;11.59;100.00;102280.03;5092490;28;20439;-44
2023/09/24 04:50:38;;;;;;;0.00;0.00;;;;;;;11.56;100.00;102285.75;5099353;28;20114;-40
2023/09/24 04:53:06;;;;;;;0.00;0.00;;;;;;;11.53;100.00;102286.03;5112507;28;20069;-44
2023/09/24 04:55:32;;;;;;;0.00;0.00;;;;;;;11.52;100.00;102287.03;5110704;28;20107;-42
2023/09/24 04:57:58;;;;;;;0.00;0.00;;;;;;;11.50;100.00;102285.47;5099352;28;20032;-42
2023/09/24 05:00:23;;;;;;;0.00;0.00;;;;;;;11.49;100.00;102297.28;5091590;28;20079;-43
2023/09/24 05:02:49;;;;;;;0.00;0.00;;;;;;;11.42;100.00;102286.25;5099737;28;20031;-44
2023/09/24 05:05:15;;;;;;;0.00;0.00;;;;;;;11.38;100.00;102291.09;5112187;28;20546;-42
2023/09/24 05:07:40;;;;;;;0.00;0.00;;;;;;;11.36;100.00;102297.66;5108731;28;20110;-42
2023/09/24 05:10:07;;;;;;;0.00;0.00;;;;;;;11.38;100.00;102299.19;5109874;28;20474;-42
2023/09/24 05:12:32;;;;;;;0.00;0.00;;;;;;;11.39;100.00;102300.03;5105550;28;20469;-43
2023/09/24 05:14:58;;;;;;;0.00;0.00;;;;;;;11.38;100.00;102299.19;5106634;28;20047;-43
2023/09/24 05:17:23;;;;;;;0.00;0.00;;;;;;;11.37;100.00;102291.25;5106033;27;20024;-42
2023/09/24 05:19:49;;;;;;;0.00;0.00;;;;;;;11.39;100.00;102297.34;5105832;27;20028;-43
2023/09/24 05:22:14;;;;;;;0.00;0.00;;;;;;;11.38;100.00;102301.03;5107541;28;20042;-44
2023/09/24 05:24:39;;;;;;;0.00;0.00;;;;;;;11.37;100.00;102304.72;5107191;28;20062;-41
2023/09/24 05:27:05;;;;;;;0.00;0.00;;;;;;;11.37;100.00;102302.91;5096891;28;20032;-44
2023/09/24 05:29:30;;;;;;;0.00;0.00;;;;;;;11.38;100.00;102306.44;5100882;28;20476;-43
2023/09/24 05:31:55;;;;;;;0.00;0.00;;;;;;;11.40;100.00;102315.19;5106870;27;20040;-43
2023/09/24 05:34:21;;;;;;;0.00;0.00;;;;;;;11.39;100.00;102317.03;5100303;28;20401;-42
2023/09/24 05:36:49;;;;;;;0.00;0.00;;;;;;;11.47;100.00;102313.59;5101242;28;20039;-43
2023/09/24 05:39:15;;;;;;;0.00;0.00;;;;;;;11.44;100.00;102319.28;5098881;28;20028;-43
2023/09/24 05:41:40;;;;;;;0.00;0.00;;;;;;;11.47;100.00;102319.00;5100742;28;20020;-42
2023/09/24 05:44:06;;;;;;;0.00;0.00;;;;;;;11.45;100.00;102314.75;5097655;28;20032;-43
2023/09/24 05:46:31;;;;;;;0.00;0.00;;;;;;;11.42;100.00;102316.75;5102132;28;20028;-45
2023/09/24 05:48:58;;;;;;;0.00;0.00;;;;;;;11.44;100.00;102319.28;5100864;28;20030;-44
2023/09/24 05:51:24;;;;;;;0.00;0.00;;;;;;;11.45;100.00;102331.75;5099219;28;20058;-45
2023/09/24 05:53:51;;;;;;;0.00;0.00;;;;;;;11.46;100.00;102328.09;5099335;28;20039;-42
2023/09/24 05:56:17;;;;;;;0.00;0.00;;;;;;;11.51;100.00;102324.94;5103111;28;20446;-44
2023/09/24 05:58:42;;;;;;;0.00;0.00;;;;;;;11.53;100.00;102326.50;5096417;28;20151;-44
2023/09/24 06:01:13;;;;;;;0.00;0.00;;;;;;;11.57;100.00;102333.25;5101107;28;20047;-39
2023/09/24 06:03:39;;;;;;;0.00;0.00;;;;;;;11.56;100.00;102338.81;5098091;28;20020;-43
2023/09/24 06:06:09;;;;;;;0.00;0.00;;;;;;;11.58;100.00;102326.00;5102822;28;20091;-43
2023/09/24 06:08:36;;;;;;;0.00;0.00;;;;;;;11.61;100.00;102326.56;5099704;28;20027;-43
2023/09/24 06:11:02;;;;;;;0.00;0.00;;;;;;;11.66;100.00;102334.19;5099919;28;20137;-44
2023/09/24 06:13:27;;;;;;;0.00;0.00;;;;;;;11.64;100.00;102328.97;5102832;28;20501;-43
2023/09/24 06:16:01;;;;;;;0.00;0.00;;;;;;;11.67;100.00;102325.13;5101770;28;20092;-44
2023/09/24 06:18:27;;;;;;;0.00;0.00;;;;;;;11.64;100.00;102331.66;5102169;28;20034;-44
2023/09/24 06:20:52;;;;;;;0.00;0.00;;;;;;;11.74;100.00;102330.72;5098821;28;20023;-43
2023/09/24 06:23:18;;;;;;;0.00;0.00;;;;;;;11.75;100.00;102337.84;5098375;28;20039;-45
2023/09/24 06:25:43;;;;;;;0.00;0.00;;;;;;;11.80;100.00;102338.22;5102946;28;20415;-42
2023/09/24 06:28:11;;;;;;;0.00;0.00;;;;;;;11.83;100.00;102336.06;5101897;28;20023;-44
2023/09/24 06:30:38;;;;;;;0.00;0.00;;;;;;;11.84;100.00;102323.41;5100700;28;20117;-44
2023/09/24 06:33:04;;;;;;;0.00;0.00;;;;;;;11.85;100.00;102334.06;5099818;28;20102;-45
2023/09/24 06:35:30;;;;;;;0.00;0.00;;;;;;;11.85;100.00;102341.31;5099955;28;20121;-44
2023/09/24 06:37:55;;;;;;;0.00;0.00;;;;;;;11.93;100.00;102344.13;5094894;28;20024;-42
2023/09/24 06:40:20;;;;;;;0.00;0.00;;;;;;;12.01;100.00;102337.94;5097464;28;20427;-44
2023/09/24 06:42:47;;;;;;;0.00;0.00;;;;;;;12.02;100.00;102345.88;5102256;27;20016;-43
2023/09/24 06:45:12;;;;;;;0.00;0.00;;;;;;;12.13;100.00;102346.66;5100113;28;20028;-42
2023/09/24 06:47:38;;;;;;;0.00;0.00;;;;;;;12.17;100.00;102338.09;5091746;28;20012;-43
2023/09/24 06:50:03;;;;;;;0.00;0.00;;;;;;;12.21;100.00;102335.91;5100142;28;21284;-43
2023/09/24 06:52:32;;;;;;;0.00;0.00;;;;;;;12.27;100.00;102338.84;5100941;28;20028;-47
2023/09/24 06:54:58;;;;;;;0.00;0.00;;;;;;;12.48;100.00;102343.03;5101825;28;20478;-43
2023/09/24 06:57:24;;;;;;;0.00;0.00;;;;;;;12.65;100.00;102352.13;5101920;28;20097;-44
2023/09/24 06:59:49;;;;;;;0.00;0.00;;;;;;;12.79;100.00;102346.13;5100410;28;20076;-44
2023/09/24 07:02:15;;;;;;;0.00;0.00;;;;;;;12.75;100.00;102347.47;5097501;28;20055;-45
2023/09/24 07:04:40;;;;;;;0.00;0.00;;;;;;;12.82;100.00;102343.13;5098559;27;20051;-41
2023/09/24 07:07:08;;;;;;;0.00;0.00;;;;;;;12.93;100.00;102342.00;5101969;28;20118;-41
2023/09/24 07:09:34;;;;;;;0.00;0.00;;;;;;;13.13;100.00;102350.69;5100408;28;20104;-42
2023/09/24 07:11:59;;;;;;;0.00;0.00;;;;;;;13.84;100.00;102339.44;5099932;28;20470;-43
2023/09/24 07:14:24;;;;;;;0.00;0.00;;;;;;;14.27;100.00;102339.31;5101988;28;20497;-41
2023/09/24 07:16:50;;;;;;;0.00;0.00;;;;;;;14.74;100.00;102340.47;5100567;28;20027;-42
2023/09/24 07:19:15;;;;;;;0.00;0.00;;;;;;;15.55;100.00;102336.59;5101842;28;20047;-41
2023/09/24 07:21:41;;;;;;;0.00;0.00;;;;;;;16.29;100.00;102333.38;5099859;28;20087;-46
2023/09/24 07:24:07;;;;;;;0.00;0.00;;;;;;;17.28;100.00;102334.03;5099288;28;20397;-43
2023/09/24 07:26:32;;;;;;;0.00;0.00;;;;;;;17.64;100.00;102331.31;5100122;28;20068;-43
2023/09/24 07:28:59;;;;;;;0.00;0.00;;;;;;;18.26;100.00;102334.44;5096696;28;20069;-44
2023/09/24 07:31:25;;;;;;;0.00;0.00;;;;;;;18.33;100.00;102329.91;5096573;28;20367;-42
2023/09/24 07:33:55;;;;;;;0.00;0.00;;;;;;;18.22;100.00;102334.00;5098035;28;20035;-44
2023/09/24 07:36:21;;;;;;;0.00;0.00;;;;;;;18.41;100.00;102332.50;5094613;28;20035;-44
2023/09/24 07:38:49;;;;;;;0.00;0.00;;;;;;;18.56;100.00;102333.25;5105859;28;20502;-42
2023/09/24 07:41:15;;;;;;;0.00;0.00;;;;;;;19.30;100.00;102331.81;5111293;28;20019;-44
2023/09/24 07:43:44;;;;;;;0.00;0.00;;;;;;;19.27;100.00;102343.97;5111260;28;20432;-45
2023/09/24 07:46:14;;;;;;;0.00;0.00;;;;;;;20.07;100.00;102343.38;5110930;28;20034;-42
2023/09/24 07:48:41;;;;;;;0.00;0.00;;;;;;;19.41;100.00;102339.41;5096739;28;20081;-42
2023/09/24 07:51:06;;;;;;;0.00;0.00;;;;;;;20.25;100.00;102345.47;5089091;28;20462;-45
2023/09/24 07:53:32;;;;;;;0.00;0.00;;;;;;;19.40;100.00;102334.97;5091667;28;20038;-42
2023/09/24 07:56:07;;;;;;;0.00;0.00;;;;;;;20.10;100.00;102349.25;5090976;28;20111;-47
2023/09/24 07:58:37;;;;;;;0.00;0.00;;;;;;;20.43;100.00;102347.56;5095059;28;20034;-41
2023/09/24 08:01:04;;;;;;;0.00;0.00;;;;;;;20.26;100.00;102337.06;5110738;28;20067;-42
2023/09/24 08:03:30;;;;;;;0.00;0.00;;;;;;;20.31;100.00;102337.28;5111709;28;20072;-42
2023/09/24 08:05:56;;;;;;;0.00;0.00;;;;;;;21.43;100.00;102337.25;5103183;28;20073;-43
2023/09/24 08:08:23;;;;;;;0.00;0.00;;;;;;;20.93;98.10;102337.00;5097741;28;21140;-43
2023/09/24 08:10:49;;;;;;;0.00;0.00;;;;;;;20.78;99.84;102331.78;5089678;28;20111;-45
2023/09/24 08:13:15;;;;;;;0.00;0.00;;;;;;;20.11;100.00;102323.59;5101574;28;20028;-43
2023/09/24 08:15:40;;;;;;;0.00;0.00;;;;;;;19.86;100.00;102326.09;5106825;28;20055;-45
2023/09/24 08:18:09;;;;;;;0.00;0.00;;;;;;;19.72;100.00;102329.84;5108207;28;20032;-43
2023/09/24 08:20:36;;;;;;;0.00;0.00;;;;;;;19.69;100.00;102335.72;5095106;28;20031;-44
2023/09/24 08:23:01;;;;;;;0.00;0.00;;;;;;;19.72;100.00;102335.31;5091312;28;20531;-42
2023/09/24 08:25:27;;;;;;;0.00;0.00;;;;;;;19.90;100.00;102332.81;5089696;28;20024;-43
2023/09/24 08:27:52;;;;;;;0.00;0.00;;;;;;;20.85;100.00;102345.44;5099098;28;20051;-43
2023/09/24 08:30:19;;;;;;;0.00;0.00;;;;;;;21.27;100.00;102346.78;5090562;28;20020;-42
2023/09/24 08:32:44;;;;;;;0.00;0.00;;;;;;;20.12;100.00;102338.97;5090885;28;20097;-42
2023/09/24 08:35:09;;;;;;;0.00;0.00;;;;;;;20.12;100.00;102338.97;5090605;28;20615;-42
2023/09/24 08:37:35;;;;;;;0.00;0.00;;;;;;;20.61;100.00;102345.91;5102896;28;20041;-41
2023/09/24 08:40:00;;;;;;;0.00;0.00;;;;;;;20.29;100.00;102339.38;5110246;28;20571;-40
2023/09/24 08:42:26;;;;;;;0.00;0.00;;;;;;;20.18;100.00;102346.31;5110368;28;20034;-44
2023/09/24 08:44:58;;;;;;;0.00;0.00;;;;;;;20.85;100.00;102339.97;5110418;28;20102;-45
2023/09/24 08:47:24;;;;;;;0.00;0.00;;;;;;;21.08;98.88;102340.34;5109328;28;20019;-46
2023/09/24 08:49:50;;;;;;;0.00;0.00;;;;;;;21.29;97.58;102346.56;5109977;28;20038;-45
2023/09/24 08:52:17;;;;;;;0.00;0.00;;;;;;;21.47;100.00;102341.25;5111616;28;20185;-44
2023/09/24 08:54:43;;;;;;;0.00;0.00;;;;;;;21.01;94.80;102342.25;5111724;28;20501;-43
2023/09/24 08:57:08;;;;;;;0.00;0.00;;;;;;;19.93;100.00;102337.88;5110766;28;20031;-43
2023/09/24 08:59:33;;;;;;;0.00;0.00;;;;;;;19.27;100.00;102343.09;5110498;28;20047;-46
2023/09/24 09:01:59;;;;;;;0.00;0.00;;;;;;;18.85;100.00;102334.06;5103725;28;20025;-44
2023/09/24 09:04:24;;;;;;;0.00;0.00;;;;;;;19.79;100.00;102336.16;5110488;28;20176;-41
2023/09/24 09:06:51;;;;;;;0.00;0.00;;;;;;;19.83;100.00;102331.97;5094721;28;20473;-44
2023/09/24 09:09:26;;;;;;;0.00;0.00;;;;;;;18.81;100.00;102327.34;5106719;28;20024;-44
2023/09/24 09:11:51;;;;;;;0.00;0.00;;;;;;;18.54;100.00;102329.84;5114330;28;20513;-45
2023/09/24 09:14:32;;;;;;;0.00;0.00;;;;;;;18.67;100.00;102330.97;5113871;28;20112;-44
2023/09/24 09:16:57;;;;;;;0.00;0.00;;;;;;;18.28;100.00;102333.22;5112430;28;20020;-43
2023/09/24 09:19:23;;;;;;;0.00;0.00;;;;;;;18.05;100.00;102336.16;5113707;27;20562;-44
2023/09/24 09:21:49;;;;;;;0.00;0.00;;;;;;;18.01;100.00;102332.16;5101733;27;20035;-44
2023/09/24 09:24:24;;;;;;;0.00;0.00;;;;;;;17.89;100.00;102333.69;5091928;28;20024;-44
2023/09/24 09:26:54;;;;;;;0.00;0.00;;;;;;;17.73;100.00;102324.69;5094414;28;20028;-42
2023/09/24 09:29:21;;;;;;;0.00;0.00;;;;;;;17.64;100.00;102334.03;5099311;28;20522;-45
2023/09/24 09:31:51;;;;;;;0.00;0.00;;;;;;;17.75;100.00;102325.34;5101537;28;20016;-42
2023/09/24 09:34:16;;;;;;;0.00;0.00;;;;;;;17.53;100.00;102324.47;5093474;28;20028;-42
2023/09/24 09:36:42;;;;;;;0.00;0.00;;;;;;;17.90;100.00;102314.41;5103338;27;20115;-44
2023/09/24 09:39:08;;;;;;;0.00;0.00;;;;;;;18.01;100.00;102321.25;5093236;28;20028;-44
2023/09/24 09:41:34;;;;;;;0.00;0.00;;;;;;;18.11;100.00;102316.28;5094115;28;20023;-44
2023/09/24 09:44:08;;;;;;;0.00;0.00;;;;;;;18.36;100.00;102313.16;5113602;27;20457;-42
2023/09/24 09:46:34;;;;;;;0.00;0.00;;;;;;;18.14;100.00;102325.94;5092929;28;20045;-43
2023/09/24 09:49:07;;;;;;;0.00;0.00;;;;;;;17.88;100.00;102310.22;5108573;28;20031;-42
2023/09/24 09:51:39;;;;;;;0.00;0.00;;;;;;;17.72;100.00;102303.97;5093023;28;20547;-43
2023/09/24 09:54:06;;;;;;;0.00;0.00;;;;;;;17.83;100.00;102309.97;5114662;27;20031;-42
2023/09/24 09:56:35;;;;;;;0.00;0.00;;;;;;;17.81;100.00;102303.88;5133441;27;20031;-46
2023/09/24 09:59:00;;;;;;;0.00;0.00;;;;;;;17.85;100.00;102305.16;5124501;27;20111;-42
2023/09/24 10:01:26;;;;;;;0.00;0.00;;;;;;;18.01;100.00;102314.94;5103280;28;20135;-43
2023/09/24 10:03:52;;;;;;;0.00;0.00;;;;;;;17.90;100.00;102299.97;5102278;28;20085;-42
2023/09/24 10:06:17;;;;;;;0.00;0.00;;;;;;;17.87;100.00;102298.47;5091869;28;20035;-43
2023/09/24 10:08:46;;;;;;;0.00;0.00;;;;;;;17.92;100.00;102295.16;5074652;28;20032;-43
2023/09/24 10:11:30;;;;;;;0.00;0.00;;;;;;;17.85;100.00;102300.56;5093309;28;20031;-43
2023/09/24 10:13:56;;;;;;;0.00;0.00;;;;;;;17.69;100.00;102293.47;5092836;28;20085;-42
2023/09/24 10:16:35;;;;;;;0.00;0.00;;;;;;;17.73;100.00;102308.34;5100394;28;20032;-43
2023/09/24 10:19:04;;;;;;;0.00;0.00;;;;;;;17.89;100.00;102298.28;5093029;28;20027;-41
2023/09/24 10:21:32;;;;;;;0.00;0.00;;;;;;;17.85;100.00;102284.22;5095377;28;20026;-43
2023/09/24 10:24:17;;;;;;;0.00;0.00;;;;;;;17.89;100.00;102290.13;5103776;28;20058;-42
2023/09/24 10:27:03;;;;;;;0.00;0.00;;;;;;;17.77;100.00;102287.03;5097736;28;20032;-44
2023/09/24 10:29:55;;;;;;;0.00;0.00;;;;;;;17.92;100.00;102295.16;5098924;28;20020;-45
2023/09/24 10:32:22;;;;;;;0.00;0.00;;;;;;;17.80;100.00;102292.13;5099257;28;20061;-44
2023/09/24 10:34:59;;;;;;;0.00;0.00;;;;;;;17.87;100.00;102300.34;5090236;28;20052;-43
2023/09/24 10:37:37;;;;;;;0.00;0.00;;;;;;;17.76;100.00;102294.34;5091349;28;20422;-43
2023/09/24 10:40:04;;;;;;;0.00;0.00;;;;;;;17.71;100.00;102291.38;5096622;28;20111;-43
2023/09/24 10:42:34;;;;;;;0.00;0.00;;;;;;;17.83;100.00;102299.06;5111554;28;20424;-44
2023/09/24 10:45:14;;;;;;;0.00;0.00;;;;;;;17.77;100.00;102282.44;5099758;28;20424;-42
2023/09/24 10:47:42;;;;;;;0.00;0.00;;;;;;;17.71;100.00;102277.75;5105021;28;20084;-42
2023/09/24 10:50:18;;;;;;;0.00;0.00;;;;;;;17.85;100.00;102272.47;5101401;28;20020;-41
2023/09/24 10:52:52;;;;;;;0.00;0.00;;;;;;;17.88;100.00;102286.56;5089673;28;20441;-44
2023/09/24 10:55:19;;;;;;;0.00;0.00;;;;;;;18.08;100.00;102278.53;5090644;28;20063;-45
2023/09/24 10:57:53;;;;;;;0.00;0.00;;;;;;;18.29;100.00;102277.66;5090633;28;20072;-42
2023/09/24 11:00:20;;;;;;;0.00;0.00;;;;;;;18.39;100.00;102275.44;5107461;28;20130;-44
2023/09/24 11:02:52;;;;;;;0.00;0.00;;;;;;;18.38;100.00;102272.91;5092910;28;20444;-44
2023/09/24 11:05:18;;;;;;;0.00;0.00;;;;;;;18.28;100.00;102278.72;5088137;28;20038;-40
2023/09/24 11:07:44;;;;;;;0.00;0.00;;;;;;;18.27;100.00;102270.72;5093095;28;20016;-42
2023/09/24 11:10:10;;;;;;;0.00;0.00;;;;;;;18.26;100.00;102271.78;5092282;28;20115;-42
2023/09/24 11:12:35;;;;;;;0.00;0.00;;;;;;;18.48;100.00;102273.38;5097073;28;20034;-42
2023/09/24 11:15:00;;;;;;;0.00;0.00;;;;;;;18.62;100.00;102274.34;5096543;28;20051;-44
2023/09/24 11:17:26;;;;;;;0.00;0.00;;;;;;;18.56;100.00;102275.97;5107273;27;20462;-44